Time;durP1;ratioP1;P1;durP2;ratioP2;P2;SDS_P1;SDS_P2;PMS_P1;PMS_P2;Temp;Humidity;BMP_temperature;BMP_pressure;BME280_temperature;BME280_humidity;BME280_pressure;Samples;Min_cycle;Max_cycle;Signal;HPM_P1;HPM_P2
2022/10/16 00:01:58;;;;;;;1.70;1.60;;;17.50;68.50;;;;;;5053454;28;20181;-65
2022/10/16 00:04:23;;;;;;;1.77;1.67;;;17.60;68.50;;;;;;5052966;28;20249;-66
2022/10/16 00:06:49;;;;;;;1.70;1.60;;;17.60;68.50;;;;;;5053710;28;20175;-66
2022/10/16 00:09:14;;;;;;;1.92;1.75;;;17.50;68.50;;;;;;5059044;28;20270;-65
2022/10/16 00:11:40;;;;;;;1.70;1.60;;;17.50;68.40;;;;;;5067197;28;20223;-65
2022/10/16 00:14:11;;;;;;;1.75;1.60;;;17.50;68.40;;;;;;5052788;28;20202;-65
2022/10/16 00:16:37;;;;;;;1.58;1.48;;;17.50;68.50;;;;;;5052877;28;20218;-65
2022/10/16 00:19:03;;;;;;;1.77;1.67;;;17.50;68.50;;;;;;5053046;28;20203;-65
2022/10/16 00:21:29;;;;;;;1.83;1.60;;;17.50;68.50;;;;;;5053449;28;20175;-65
2022/10/16 00:24:00;;;;;;;2.40;2.13;;;17.50;68.50;;;;;;5052416;28;20236;-65
2022/10/16 00:26:25;;;;;;;2.17;1.98;;;17.50;68.40;;;;;;5053374;28;20183;-65
2022/10/16 00:28:51;;;;;;;1.70;1.60;;;17.50;68.40;;;;;;5052754;28;20589;-65
2022/10/16 00:31:18;;;;;;;1.70;1.60;;;17.50;68.40;;;;;;5051964;28;20187;-65
2022/10/16 00:33:43;;;;;;;2.88;1.60;;;17.50;68.50;;;;;;5053167;28;20183;-65
2022/10/16 00:36:14;;;;;;;1.88;1.77;;;17.50;68.50;;;;;;5053290;28;20524;-65
2022/10/16 00:38:40;;;;;;;1.60;1.50;;;17.50;68.50;;;;;;5052312;28;20179;-64
2022/10/16 00:41:11;;;;;;;1.80;1.70;;;17.50;68.50;;;;;;5066242;28;20636;-65
2022/10/16 00:43:43;;;;;;;1.80;1.70;;;17.50;68.50;;;;;;5057532;28;20179;-64
2022/10/16 00:46:37;;;;;;;3.42;1.52;;;17.50;68.50;;;;;;5051930;28;20254;-65
2022/10/16 00:49:13;;;;;;;2.53;1.88;;;17.40;68.40;;;;;;5050109;28;20183;-65
2022/10/16 00:51:46;;;;;;;2.70;1.80;;;17.50;68.50;;;;;;5034182;28;20624;-65
2022/10/16 00:54:23;;;;;;;2.40;1.80;;;17.50;68.40;;;;;;5035489;28;20171;-65
2022/10/16 00:56:49;;;;;;;1.90;1.80;;;17.40;68.40;;;;;;5051516;28;20540;-64
2022/10/16 00:59:29;;;;;;;2.15;1.95;;;17.40;68.30;;;;;;5050671;28;20179;-64
2022/10/16 01:01:55;;;;;;;2.13;1.92;;;17.40;68.30;;;;;;5051643;28;20615;-65
2022/10/16 01:04:21;;;;;;;2.17;1.80;;;17.40;68.40;;;;;;5052178;28;20203;-66
2022/10/16 01:07:03;;;;;;;2.53;1.70;;;17.40;68.30;;;;;;5051012;28;20217;-66
2022/10/16 01:09:56;;;;;;;2.50;1.90;;;17.40;68.30;;;;;;5059277;28;20243;-65
2022/10/16 01:12:29;;;;;;;1.85;1.75;;;17.40;68.30;;;;;;5048341;28;20211;-65
2022/10/16 01:15:03;;;;;;;1.85;1.75;;;17.40;68.30;;;;;;5050699;28;20672;-65
2022/10/16 01:17:36;;;;;;;2.08;1.95;;;17.40;68.30;;;;;;5051700;28;20178;-64
2022/10/16 01:20:24;;;;;;;1.80;1.70;;;17.40;68.30;;;;;;5034815;28;20700;-65
2022/10/16 01:23:09;;;;;;;1.95;1.85;;;17.40;68.30;;;;;;5051330;28;20202;-65
2022/10/16 01:25:52;;;;;;;2.15;1.88;;;17.40;68.30;;;;;;5056169;28;20181;-65
2022/10/16 01:28:18;;;;;;;3.33;1.85;;;17.40;68.30;;;;;;5055563;28;20633;-65
2022/10/16 01:30:44;;;;;;;1.80;1.70;;;17.40;68.30;;;;;;5038873;28;20242;-65
2022/10/16 01:33:15;;;;;;;2.20;2.00;;;17.40;68.30;;;;;;5038511;28;20199;-66
2022/10/16 01:35:47;;;;;;;2.10;1.90;;;17.40;68.30;;;;;;5054640;28;20252;-64
2022/10/16 01:38:17;;;;;;;1.95;1.67;;;17.40;68.30;;;;;;5055019;28;20197;-64
2022/10/16 01:40:45;;;;;;;1.85;1.75;;;17.40;68.20;;;;;;5064806;28;20186;-64
2022/10/16 01:43:14;;;;;;;1.80;1.70;;;17.30;68.20;;;;;;5058325;28;20182;-64
2022/10/16 01:45:39;;;;;;;2.17;1.92;;;17.40;68.30;;;;;;5058709;28;20269;-64
2022/10/16 01:48:07;;;;;;;1.70;1.60;;;17.40;68.20;;;;;;5074138;28;20281;-64
2022/10/16 01:50:34;;;;;;;3.10;1.85;;;17.30;68.20;;;;;;5076102;28;20262;-65
2022/10/16 01:53:00;;;;;;;1.83;1.73;;;17.30;68.20;;;;;;5057984;28;20582;-65
2022/10/16 01:55:34;;;;;;;2.10;1.90;;;17.30;68.20;;;;;;5044985;28;20179;-65
2022/10/16 01:57:59;;;;;;;2.00;1.73;;;17.30;68.20;;;;;;5039084;28;20181;-64
2022/10/16 02:00:25;;;;;;;1.88;1.77;;;17.30;68.10;;;;;;5055830;28;20183;-65
2022/10/16 02:02:52;;;;;;;1.92;1.80;;;17.30;68.10;;;;;;5054054;28;20271;-65
2022/10/16 02:05:30;;;;;;;2.35;1.85;;;17.30;68.10;;;;;;5054589;28;20181;-65
2022/10/16 02:07:55;;;;;;;2.22;1.60;;;17.30;68.10;;;;;;5038515;28;20183;-66
2022/10/16 02:10:21;;;;;;;1.92;1.73;;;17.30;68.10;;;;;;5055837;28;20226;-65
2022/10/16 02:13:03;;;;;;;1.83;1.73;;;17.30;68.10;;;;;;5054697;28;20237;-65
2022/10/16 02:15:29;;;;;;;1.60;1.50;;;17.30;68.10;;;;;;5054713;28;20167;-65
2022/10/16 02:17:54;;;;;;;1.80;1.70;;;17.30;68.10;;;;;;5054986;28;20348;-65
2022/10/16 02:20:22;;;;;;;1.70;1.60;;;17.30;68.10;;;;;;5055031;28;20221;-65
2022/10/16 02:22:47;;;;;;;1.80;1.70;;;17.30;68.10;;;;;;5037775;28;20182;-65
2022/10/16 02:25:25;;;;;;;1.88;1.77;;;17.30;68.10;;;;;;5053259;28;20179;-65
2022/10/16 02:28:09;;;;;;;1.60;1.50;;;17.30;68.10;;;;;;5054394;28;20190;-65
2022/10/16 02:30:48;;;;;;;1.80;1.65;;;17.30;68.10;;;;;;5053741;28;20164;-65
2022/10/16 02:33:13;;;;;;;1.60;1.50;;;17.20;68.00;;;;;;5053493;28;20226;-65
2022/10/16 02:35:39;;;;;;;1.73;1.55;;;17.30;68.00;;;;;;5037311;28;20206;-65
2022/10/16 02:38:04;;;;;;;1.83;1.73;;;17.30;68.00;;;;;;5052664;28;20218;-64
2022/10/16 02:40:30;;;;;;;2.40;2.05;;;17.30;68.10;;;;;;5044706;28;20177;-64
2022/10/16 02:42:56;;;;;;;2.35;2.10;;;17.30;68.00;;;;;;5073185;28;20209;-64
2022/10/16 02:45:22;;;;;;;1.65;1.55;;;17.20;68.00;;;;;;5074568;28;20278;-65
2022/10/16 02:47:47;;;;;;;1.77;1.67;;;17.30;68.00;;;;;;5057454;28;20228;-65
2022/10/16 02:50:13;;;;;;;1.58;1.35;;;17.20;68.00;;;;;;5074828;28;20641;-65
2022/10/16 02:52:38;;;;;;;3.35;1.60;;;17.20;68.00;;;;;;5074226;28;20224;-65
2022/10/16 02:55:04;;;;;;;2.42;1.75;;;17.20;68.00;;;;;;5057003;28;20230;-65
2022/10/16 02:57:31;;;;;;;2.00;1.50;;;17.20;68.00;;;;;;5054584;28;20585;-64
2022/10/16 02:59:56;;;;;;;1.95;1.85;;;17.20;67.90;;;;;;5054330;28;20205;-65
2022/10/16 03:02:22;;;;;;;1.60;1.50;;;17.30;68.00;;;;;;5054583;28;20179;-65
2022/10/16 03:04:47;;;;;;;1.40;1.30;;;17.20;67.90;;;;;;5054939;28;20564;-65
2022/10/16 03:07:13;;;;;;;1.73;1.63;;;17.20;67.90;;;;;;5053883;28;20564;-66
2022/10/16 03:09:38;;;;;;;1.77;1.67;;;17.20;67.90;;;;;;5056765;28;20642;-65
2022/10/16 03:12:04;;;;;;;1.98;1.80;;;17.20;67.90;;;;;;5054037;28;20226;-65
2022/10/16 03:14:29;;;;;;;1.77;1.67;;;17.20;67.90;;;;;;5053646;28;20175;-65
2022/10/16 03:16:55;;;;;;;1.70;1.60;;;17.20;67.90;;;;;;5054373;28;20189;-65
2022/10/16 03:19:20;;;;;;;2.17;1.50;;;17.20;67.90;;;;;;5053657;28;20171;-65
2022/10/16 03:21:46;;;;;;;1.70;1.60;;;17.20;67.90;;;;;;5054477;28;20182;-65
2022/10/16 03:24:11;;;;;;;1.50;1.40;;;17.20;67.90;;;;;;5054173;28;20167;-65
2022/10/16 03:26:37;;;;;;;1.60;1.50;;;17.20;67.90;;;;;;5053401;28;20182;-65
2022/10/16 03:29:03;;;;;;;2.40;1.70;;;17.20;67.90;;;;;;5054031;28;20202;-65
2022/10/16 03:31:29;;;;;;;1.70;1.58;;;17.20;67.90;;;;;;5054099;28;20174;-65
2022/10/16 03:33:54;;;;;;;1.80;1.70;;;17.20;67.90;;;;;;5053516;28;20656;-65
2022/10/16 03:36:20;;;;;;;1.77;1.67;;;17.20;67.90;;;;;;5054004;28;20167;-65
2022/10/16 03:38:45;;;;;;;1.38;1.27;;;17.20;67.90;;;;;;5054290;28;20179;-66
2022/10/16 03:41:11;;;;;;;1.55;1.40;;;17.20;67.90;;;;;;5067118;28;20625;-64
2022/10/16 03:43:36;;;;;;;1.63;1.52;;;17.20;67.90;;;;;;5056146;28;20179;-64
2022/10/16 03:46:02;;;;;;;1.55;1.45;;;17.20;67.90;;;;;;5053007;28;20179;-64
2022/10/16 03:48:27;;;;;;;1.40;1.30;;;17.20;67.90;;;;;;5052718;28;20179;-64
2022/10/16 03:50:53;;;;;;;1.85;1.75;;;17.20;67.90;;;;;;5053903;28;20222;-65
2022/10/16 03:53:18;;;;;;;1.52;1.42;;;17.20;67.90;;;;;;5053545;28;20256;-64
2022/10/16 03:55:44;;;;;;;1.60;1.50;;;17.20;67.80;;;;;;5053173;28;20171;-65
2022/10/16 03:58:10;;;;;;;1.00;1.00;;;17.20;67.80;;;;;;5052885;28;20198;-64
2022/10/16 04:00:35;;;;;;;1.50;1.40;;;17.20;67.80;;;;;;5053809;28;20195;-65
2022/10/16 04:03:01;;;;;;;1.83;1.73;;;17.10;67.80;;;;;;5052843;28;20174;-64
2022/10/16 04:05:26;;;;;;;1.40;1.30;;;17.20;67.80;;;;;;5053752;28;20217;-65
2022/10/16 04:07:52;;;;;;;1.77;1.50;;;17.20;67.80;;;;;;5053805;28;20262;-65
2022/10/16 04:10:18;;;;;;;1.42;1.35;;;17.20;67.80;;;;;;5066708;28;20222;-65
2022/10/16 04:12:44;;;;;;;1.55;1.45;;;17.10;67.80;;;;;;5058421;28;20207;-65
2022/10/16 04:15:09;;;;;;;1.42;1.27;;;17.10;67.70;;;;;;5053108;28;20182;-65
2022/10/16 04:17:35;;;;;;;1.25;1.17;;;17.10;67.80;;;;;;5052797;28;20528;-64
2022/10/16 04:20:00;;;;;;;1.70;1.60;;;17.10;67.80;;;;;;5053270;28;20190;-65
2022/10/16 04:22:26;;;;;;;1.50;1.40;;;17.10;67.80;;;;;;5053351;28;20183;-65
2022/10/16 04:24:52;;;;;;;1.70;1.60;;;17.10;67.80;;;;;;5052567;28;20171;-65
2022/10/16 04:27:17;;;;;;;1.65;1.55;;;17.10;67.70;;;;;;5052670;28;20328;-65
2022/10/16 04:29:43;;;;;;;1.60;1.50;;;17.10;67.70;;;;;;5052211;28;20704;-65
2022/10/16 04:32:11;;;;;;;1.30;1.20;;;17.10;67.70;;;;;;5052858;28;20214;-65
2022/10/16 04:34:38;;;;;;;1.52;1.42;;;17.10;67.70;;;;;;5052882;28;20178;-65
2022/10/16 04:37:04;;;;;;;2.55;1.75;;;17.10;67.70;;;;;;5051074;28;20281;-64
2022/10/16 04:39:29;;;;;;;1.70;1.60;;;17.10;67.70;;;;;;5053265;28;20198;-64
2022/10/16 04:41:55;;;;;;;1.38;1.27;;;17.10;67.70;;;;;;5060168;28;20282;-64
2022/10/16 04:44:20;;;;;;;1.35;1.27;;;17.10;67.70;;;;;;5051514;28;20594;-64
2022/10/16 04:46:46;;;;;;;1.58;1.48;;;17.10;67.70;;;;;;5052776;28;20586;-64
2022/10/16 04:49:12;;;;;;;1.48;1.38;;;17.10;67.70;;;;;;5052747;28;20262;-65
2022/10/16 04:51:37;;;;;;;1.75;1.40;;;17.10;67.70;;;;;;5052207;28;20213;-65
2022/10/16 04:54:03;;;;;;;1.60;1.50;;;17.10;67.60;;;;;;5052359;28;20739;-64
2022/10/16 04:56:28;;;;;;;1.80;1.70;;;17.10;67.70;;;;;;5052628;28;20171;-65
2022/10/16 04:58:54;;;;;;;1.63;1.52;;;17.10;67.70;;;;;;5051931;28;20175;-64
2022/10/16 05:01:19;;;;;;;1.40;1.30;;;17.10;67.70;;;;;;5052004;28;20529;-64
2022/10/16 05:03:45;;;;;;;1.40;1.30;;;17.10;67.60;;;;;;5052509;28;20182;-65
2022/10/16 05:06:10;;;;;;;2.97;1.30;;;17.10;67.60;;;;;;5051364;28;20176;-65
2022/10/16 05:08:36;;;;;;;1.40;1.30;;;17.10;67.60;;;;;;5052542;28;20182;-65
2022/10/16 05:11:01;;;;;;;1.40;1.30;;;17.10;67.70;;;;;;5068156;28;20223;-65
2022/10/16 05:13:27;;;;;;;1.23;1.13;;;17.10;67.70;;;;;;5051602;28;20254;-65
2022/10/16 05:15:53;;;;;;;1.73;1.63;;;17.10;67.60;;;;;;5052782;28;20572;-64
2022/10/16 05:18:18;;;;;;;1.38;1.30;;;17.10;67.60;;;;;;5052075;28;20580;-64
2022/10/16 05:20:44;;;;;;;1.40;1.30;;;17.00;67.50;;;;;;5051715;28;20740;-65
2022/10/16 05:23:12;;;;;;;1.70;1.60;;;17.00;67.50;;;;;;5052164;28;20258;-64
2022/10/16 05:25:38;;;;;;;1.55;1.45;;;17.10;67.60;;;;;;5052421;28;20182;-65
2022/10/16 05:28:03;;;;;;;1.10;1.10;;;17.10;67.70;;;;;;5051279;28;20179;-65
2022/10/16 05:30:29;;;;;;;1.13;1.10;;;17.00;67.50;;;;;;5051505;28;20261;-65
2022/10/16 05:32:54;;;;;;;1.60;1.50;;;17.00;67.60;;;;;;5051820;28;20218;-65
2022/10/16 05:35:20;;;;;;;1.30;1.20;;;17.00;67.50;;;;;;5052300;28;20175;-64
2022/10/16 05:37:46;;;;;;;1.40;1.30;;;17.10;67.60;;;;;;5052478;28;20202;-64
2022/10/16 05:40:12;;;;;;;1.40;1.30;;;17.00;67.50;;;;;;5056672;28;20971;-64
2022/10/16 05:42:38;;;;;;;1.20;1.15;;;17.00;68.30;;;;;;5032653;28;20184;-64
2022/10/16 05:45:05;;;;;;;1.65;1.27;;;17.00;67.50;;;;;;5032474;28;20183;-65
2022/10/16 05:47:31;;;;;;;1.40;1.30;;;17.00;67.50;;;;;;5031854;28;20258;-64
2022/10/16 05:49:56;;;;;;;1.10;1.10;;;17.00;67.50;;;;;;5031949;28;20613;-65
2022/10/16 05:52:22;;;;;;;1.50;1.40;;;17.00;67.50;;;;;;5032373;28;20295;-65
2022/10/16 05:54:47;;;;;;;1.30;1.20;;;17.00;67.50;;;;;;5031857;28;20178;-64
2022/10/16 05:57:13;;;;;;;2.63;1.92;;;17.00;67.60;;;;;;5050616;28;20171;-65
2022/10/16 05:59:38;;;;;;;1.30;1.20;;;17.00;67.50;;;;;;5051839;28;20578;-65
2022/10/16 06:02:04;;;;;;;1.13;1.13;;;17.00;67.50;;;;;;5050893;28;20638;-65
2022/10/16 06:04:29;;;;;;;1.13;1.13;;;17.00;67.50;;;;;;5052082;28;20171;-65
2022/10/16 06:07:00;;;;;;;1.40;1.30;;;17.00;67.60;;;;;;5052365;28;20187;-65
2022/10/16 06:09:25;;;;;;;1.30;1.20;;;17.00;68.30;;;;;;5051371;28;20170;-65
2022/10/16 06:11:51;;;;;;;1.20;1.10;;;17.00;67.50;;;;;;5054803;28;20222;-65
2022/10/16 06:14:16;;;;;;;1.10;1.10;;;17.00;67.50;;;;;;5055574;28;20266;-64
2022/10/16 06:16:42;;;;;;;1.40;1.30;;;17.00;67.50;;;;;;5054883;28;20309;-65
2022/10/16 06:19:09;;;;;;;1.23;1.13;;;17.00;67.50;;;;;;5055205;28;20250;-65
2022/10/16 06:21:34;;;;;;;1.50;1.40;;;17.00;67.50;;;;;;5055453;28;20179;-65
2022/10/16 06:24:00;;;;;;;1.33;1.20;;;17.00;67.50;;;;;;5054737;28;20629;-65
2022/10/16 06:26:27;;;;;;;1.10;1.05;;;17.00;67.50;;;;;;5055218;28;20266;-65
2022/10/16 06:28:54;;;;;;;1.33;1.20;;;17.00;67.50;;;;;;5055257;28;20178;-65
2022/10/16 06:31:20;;;;;;;1.30;1.20;;;17.00;67.50;;;;;;5054132;28;20179;-66
2022/10/16 06:33:49;;;;;;;1.60;1.50;;;17.00;67.50;;;;;;5055344;28;20202;-65
2022/10/16 06:36:16;;;;;;;0.98;0.98;;;17.00;67.50;;;;;;5054459;28;20171;-64
2022/10/16 06:38:41;;;;;;;0.98;0.98;;;17.00;67.50;;;;;;5055183;28;20221;-64
2022/10/16 06:41:07;;;;;;;1.20;1.10;;;17.00;67.40;;;;;;5061029;28;20171;-64
2022/10/16 06:43:35;;;;;;;1.33;1.25;;;17.00;67.40;;;;;;5053970;28;20193;-64
2022/10/16 06:46:01;;;;;;;1.30;1.20;;;17.10;67.50;;;;;;5054840;28;20194;-65
2022/10/16 06:48:26;;;;;;;1.17;1.08;;;17.10;67.60;;;;;;5055293;28;20178;-65
2022/10/16 06:50:58;;;;;;;1.25;1.15;;;17.20;67.50;;;;;;5054514;28;20245;-65
2022/10/16 06:53:24;;;;;;;1.27;1.17;;;17.20;67.40;;;;;;5054765;28;20652;-65
2022/10/16 06:55:49;;;;;;;1.40;1.30;;;17.20;67.20;;;;;;5054840;28;20206;-65
2022/10/16 06:58:15;;;;;;;1.17;1.17;;;17.20;67.10;;;;;;5053515;28;20244;-64
2022/10/16 07:00:40;;;;;;;1.02;1.02;;;17.20;67.00;;;;;;5054677;28;20590;-65
2022/10/16 07:03:06;;;;;;;1.35;1.25;;;17.30;67.10;;;;;;5054312;28;20657;-65
2022/10/16 07:05:31;;;;;;;1.30;1.00;;;17.20;67.00;;;;;;5053797;28;20186;-66
2022/10/16 07:07:57;;;;;;;1.40;1.27;;;17.20;67.00;;;;;;5054371;28;20175;-65
2022/10/16 07:10:24;;;;;;;1.15;1.10;;;17.20;67.00;;;;;;5069262;28;20218;-65
2022/10/16 07:12:49;;;;;;;1.00;1.00;;;17.20;67.00;;;;;;5057991;28;20677;-64
2022/10/16 07:15:15;;;;;;;0.90;0.90;;;17.20;67.00;;;;;;5054031;28;20194;-64
2022/10/16 07:17:40;;;;;;;0.95;0.95;;;17.20;67.10;;;;;;5054145;28;20168;-64
2022/10/16 07:20:06;;;;;;;1.00;1.00;;;17.20;67.10;;;;;;5053301;28;20167;-64
2022/10/16 07:22:32;;;;;;;1.40;1.30;;;17.20;67.10;;;;;;5053140;28;20175;-65
2022/10/16 07:24:58;;;;;;;0.95;0.90;;;17.20;67.10;;;;;;5053569;28;20550;-65
2022/10/16 07:27:24;;;;;;;1.05;1.02;;;17.20;67.10;;;;;;5053097;28;20191;-65
2022/10/16 07:29:49;;;;;;;1.33;1.23;;;17.20;67.10;;;;;;5054092;28;20637;-65
2022/10/16 07:32:15;;;;;;;1.30;1.20;;;17.20;67.10;;;;;;5053965;28;20211;-65
2022/10/16 07:34:40;;;;;;;1.00;1.00;;;17.10;67.10;;;;;;5053647;28;20178;-64
2022/10/16 07:37:06;;;;;;;1.35;1.23;;;17.10;67.10;;;;;;5053316;28;20178;-64
2022/10/16 07:39:31;;;;;;;1.48;1.27;;;17.20;67.10;;;;;;5053330;28;20191;-64
2022/10/16 07:41:57;;;;;;;1.02;1.02;;;17.10;67.10;;;;;;5073771;28;20175;-64
2022/10/16 07:44:23;;;;;;;1.15;1.15;;;17.20;67.10;;;;;;5073838;28;20258;-64
2022/10/16 07:46:48;;;;;;;1.10;1.10;;;17.10;67.00;;;;;;5073494;28;20209;-64
2022/10/16 07:49:14;;;;;;;1.27;1.17;;;17.20;66.90;;;;;;5059383;28;20262;-64
2022/10/16 07:51:39;;;;;;;1.00;1.00;;;17.20;66.90;;;;;;5053899;28;20598;-65
2022/10/16 07:54:05;;;;;;;1.27;1.10;;;17.30;67.00;;;;;;5052074;28;20725;-75
2022/10/16 07:56:31;;;;;;;1.60;1.27;;;17.40;66.70;;;;;;5053672;28;20258;-69
2022/10/16 07:58:57;;;;;;;0.90;0.90;;;17.40;66.80;;;;;;5053577;28;20234;-73
2022/10/16 08:01:22;;;;;;;1.30;1.17;;;17.50;66.80;;;;;;5052818;28;20199;-70
2022/10/16 08:03:49;;;;;;;1.95;1.40;;;17.50;66.60;;;;;;5053729;28;20179;-72
2022/10/16 08:06:15;;;;;;;2.00;1.10;;;17.60;66.80;;;;;;5053092;28;20171;-69
2022/10/16 08:08:40;;;;;;;4.53;1.88;;;17.50;66.90;;;;;;5053294;28;20198;-67
2022/10/16 08:11:06;;;;;;;2.88;1.58;;;17.50;67.50;;;;;;5073022;28;20576;-69
2022/10/16 08:13:31;;;;;;;3.92;1.45;;;17.60;67.80;;;;;;5073507;28;20351;-69
2022/10/16 08:15:57;;;;;;;4.72;1.75;;;17.70;67.90;;;;;;5072572;28;20174;-71
2022/10/16 08:18:23;;;;;;;4.60;1.65;;;17.80;67.60;;;;;;5073413;28;20170;-71
2022/10/16 08:20:54;;;;;;;3.10;2.00;;;17.90;67.90;;;;;;5073191;28;20171;-71
2022/10/16 08:23:19;;;;;;;3.88;1.50;;;17.90;68.00;;;;;;5061419;28;20664;-71
2022/10/16 08:25:45;;;;;;;3.00;1.30;;;18.00;68.10;;;;;;5053367;28;20179;-70
2022/10/16 08:28:11;;;;;;;4.97;1.83;;;18.10;68.30;;;;;;5052919;28;20202;-70
2022/10/16 08:30:36;;;;;;;3.83;1.75;;;18.10;68.20;;;;;;5052487;28;20240;-71
2022/10/16 08:33:02;;;;;;;4.53;1.55;;;18.10;68.20;;;;;;5052512;28;20199;-70
2022/10/16 08:35:28;;;;;;;2.60;1.55;;;18.20;68.30;;;;;;5052591;28;20172;-69
2022/10/16 08:37:53;;;;;;;3.75;1.60;;;18.20;68.50;;;;;;5052084;28;20584;-68
2022/10/16 08:40:33;;;;;;;2.70;1.40;;;18.20;68.50;;;;;;5052392;28;20198;-69
2022/10/16 08:43:09;;;;;;;4.07;1.67;;;18.20;68.60;;;;;;5050843;28;20175;-67
2022/10/16 08:45:39;;;;;;;3.15;1.38;;;18.20;68.70;;;;;;5051585;28;20261;-67
2022/10/16 08:48:15;;;;;;;3.67;1.48;;;18.10;68.60;;;;;;5051198;28;20198;-67
2022/10/16 08:50:40;;;;;;;3.03;1.40;;;18.10;68.70;;;;;;5051135;28;20175;-67
2022/10/16 08:53:06;;;;;;;7.20;1.75;;;18.10;69.00;;;;;;5050928;28;20274;-66
2022/10/16 08:55:49;;;;;;;9.10;2.15;;;18.10;68.90;;;;;;5052940;28;20170;-65
2022/10/16 08:58:19;;;;;;;5.95;1.90;;;18.10;69.00;;;;;;5050634;28;20183;-66
2022/10/16 09:00:58;;;;;;;5.85;2.15;;;18.10;69.10;;;;;;5052838;28;20175;-66
2022/10/16 09:03:45;;;;;;;4.32;1.80;;;18.10;69.10;;;;;;5050835;28;20178;-67
2022/10/16 09:06:34;;;;;;;4.90;2.50;;;18.10;69.00;;;;;;5050792;28;20199;-65
2022/10/16 09:09:21;;;;;;;5.07;2.10;;;18.10;68.50;;;;;;5039463;28;20173;-66
2022/10/16 09:11:58;;;;;;;4.65;2.42;;;18.10;68.20;;;;;;5070536;28;20282;-66
2022/10/16 09:14:36;;;;;;;3.28;1.98;;;18.10;68.20;;;;;;5055226;28;20257;-66
2022/10/16 09:17:21;;;;;;;7.03;2.35;;;18.20;68.20;;;;;;5071004;28;20227;-67
2022/10/16 09:19:53;;;;;;;4.60;1.70;;;18.20;68.10;;;;;;5060543;28;20214;-66
2022/10/16 09:22:19;;;;;;;2.90;2.08;;;18.30;68.00;;;;;;5060150;28;20189;-67
2022/10/16 09:24:44;;;;;;;5.38;2.38;;;18.30;67.90;;;;;;5034661;28;20262;-67
2022/10/16 09:27:11;;;;;;;8.38;2.40;;;18.30;68.00;;;;;;5050408;28;20191;-65
2022/10/16 09:29:37;;;;;;;3.67;1.45;;;18.30;67.90;;;;;;5051131;28;20175;-65
2022/10/16 09:32:17;;;;;;;5.35;2.47;;;18.30;67.90;;;;;;5050619;28;20203;-65
2022/10/16 09:34:45;;;;;;;3.83;2.08;;;18.40;67.90;;;;;;5019123;28;20175;-65
2022/10/16 09:37:13;;;;;;;5.70;1.90;;;18.40;67.70;;;;;;5050367;28;20186;-66
2022/10/16 09:39:46;;;;;;;3.08;1.73;;;18.40;67.80;;;;;;5033940;28;20183;-66
2022/10/16 09:42:21;;;;;;;4.90;2.15;;;18.40;67.70;;;;;;5052241;28;20254;-65
2022/10/16 09:44:50;;;;;;;3.13;1.38;;;18.50;67.80;;;;;;5053533;28;20201;-66
2022/10/16 09:47:18;;;;;;;3.65;1.52;;;18.50;67.80;;;;;;5054241;28;20172;-65
2022/10/16 09:50:05;;;;;;;3.85;1.42;;;18.50;67.90;;;;;;5053660;28;20183;-65
2022/10/16 09:52:31;;;;;;;3.15;1.30;;;18.40;67.90;;;;;;5035004;28;20284;-65
2022/10/16 09:55:16;;;;;;;4.13;1.63;;;18.40;68.00;;;;;;5034098;28;20634;-66
2022/10/16 09:58:02;;;;;;;2.85;1.63;;;18.40;68.00;;;;;;5036184;28;20172;-66
2022/10/16 10:00:27;;;;;;;2.42;1.30;;;18.40;68.00;;;;;;5035200;28;20191;-66
2022/10/16 10:02:53;;;;;;;2.47;1.52;;;18.50;68.10;;;;;;5035051;28;20313;-65
2022/10/16 10:05:28;;;;;;;1.55;1.33;;;18.50;68.00;;;;;;5036783;28;20179;-65
2022/10/16 10:08:05;;;;;;;6.50;1.70;;;18.50;68.00;;;;;;5054194;28;20167;-64
2022/10/16 10:10:32;;;;;;;3.40;1.50;;;18.50;68.00;;;;;;5070545;28;20360;-65
2022/10/16 10:12:58;;;;;;;3.00;1.55;;;18.50;67.90;;;;;;5075320;28;20214;-65
2022/10/16 10:15:24;;;;;;;2.80;1.40;;;18.60;67.90;;;;;;5074004;28;20669;-66
2022/10/16 10:17:51;;;;;;;1.95;1.35;;;18.60;67.90;;;;;;5075522;28;20232;-65
2022/10/16 10:20:32;;;;;;;3.05;1.48;;;18.60;67.80;;;;;;5071078;28;20250;-65
2022/10/16 10:22:58;;;;;;;2.05;1.17;;;18.60;67.70;;;;;;5054211;28;20244;-65
2022/10/16 10:25:26;;;;;;;3.70;1.58;;;18.60;67.60;;;;;;5055413;28;20621;-65
2022/10/16 10:28:04;;;;;;;3.90;1.52;;;18.60;67.80;;;;;;5055625;28;20175;-65
2022/10/16 10:30:44;;;;;;;3.70;1.40;;;18.50;68.10;;;;;;5054910;28;20167;-65
2022/10/16 10:33:43;;;;;;;3.40;1.50;;;18.60;68.00;;;;;;5055093;28;20202;-65
2022/10/16 10:36:27;;;;;;;4.43;1.67;;;18.60;68.00;;;;;;5054195;28;20227;-65
2022/10/16 10:38:59;;;;;;;3.13;1.40;;;18.60;67.90;;;;;;5055418;28;20357;-65
2022/10/16 10:41:46;;;;;;;1.75;1.27;;;18.70;67.80;;;;;;5054056;28;20209;-66
2022/10/16 10:44:31;;;;;;;3.08;1.40;;;18.70;67.90;;;;;;5054317;28;20164;-65
2022/10/16 10:47:19;;;;;;;1.98;1.30;;;18.60;67.80;;;;;;5053828;28;20258;-65
2022/10/16 10:50:06;;;;;;;1.95;1.38;;;18.70;67.70;;;;;;5054588;28;20167;-65
2022/10/16 10:52:56;;;;;;;2.83;1.55;;;18.70;67.50;;;;;;5053585;28;20596;-65
2022/10/16 10:55:31;;;;;;;4.70;1.83;;;18.80;67.50;;;;;;5054508;28;20255;-65
2022/10/16 10:58:15;;;;;;;2.53;1.60;;;18.80;67.40;;;;;;5052835;28;20201;-66
2022/10/16 11:00:55;;;;;;;3.75;1.52;;;18.80;67.40;;;;;;5055133;28;20178;-65
2022/10/16 11:03:46;;;;;;;1.90;1.10;;;18.80;67.30;;;;;;5054789;28;20179;-64
2022/10/16 11:06:24;;;;;;;3.67;1.42;;;18.90;67.30;;;;;;5053379;28;20183;-64
2022/10/16 11:09:08;;;;;;;5.05;1.48;;;18.90;67.20;;;;;;5054911;28;20186;-63
2022/10/16 11:12:01;;;;;;;3.80;1.83;;;19.00;67.70;;;;;;5073154;28;20287;-67
2022/10/16 11:14:38;;;;;;;3.67;1.48;;;18.90;66.90;;;;;;5057637;28;20637;-68
2022/10/16 11:17:13;;;;;;;4.72;1.50;;;18.90;67.10;;;;;;5074239;28;20272;-62
2022/10/16 11:19:48;;;;;;;6.05;1.95;;;18.90;67.10;;;;;;5072707;28;20652;-64
2022/10/16 11:22:34;;;;;;;6.20;1.55;;;18.90;67.20;;;;;;5073160;28;20186;-64
2022/10/16 11:25:21;;;;;;;4.07;1.60;;;19.00;67.30;;;;;;5072355;28;20179;-64
2022/10/16 11:28:15;;;;;;;7.15;1.77;;;19.00;67.20;;;;;;5058037;28;20169;-64
2022/10/16 11:30:46;;;;;;;3.30;1.73;;;19.00;67.00;;;;;;5073031;28;20174;-64
2022/10/16 11:33:34;;;;;;;5.68;1.75;;;19.00;67.10;;;;;;5065321;28;20238;-63
2022/10/16 11:36:04;;;;;;;4.38;1.67;;;19.00;67.20;;;;;;5038232;28;20175;-64
2022/10/16 11:38:33;;;;;;;6.10;1.65;;;19.00;67.10;;;;;;5036336;28;20183;-65
2022/10/16 11:41:08;;;;;;;3.55;1.40;;;19.10;67.00;;;;;;5053455;28;20224;-64
2022/10/16 11:44:04;;;;;;;2.35;1.52;;;19.00;67.00;;;;;;5037643;28;20167;-65
2022/10/16 11:46:29;;;;;;;3.60;1.70;;;18.90;67.10;;;;;;5048496;28;20665;-65
2022/10/16 11:49:00;;;;;;;6.00;1.70;;;19.00;67.10;;;;;;5035930;28;20171;-65
2022/10/16 11:51:48;;;;;;;2.83;1.08;;;19.00;66.90;;;;;;5054051;28;20183;-64
2022/10/16 11:54:35;;;;;;;6.38;1.75;;;19.00;66.70;;;;;;5051730;28;20557;-65
2022/10/16 11:57:02;;;;;;;3.92;1.30;;;19.00;66.60;;;;;;5053708;28;20183;-65
2022/10/16 11:59:40;;;;;;;6.72;1.58;;;19.00;66.50;;;;;;5036304;28;20203;-65
2022/10/16 12:02:20;;;;;;;5.03;1.55;;;19.10;66.60;;;;;;5052082;28;20185;-64
2022/10/16 12:04:49;;;;;;;4.20;1.60;;;19.10;66.60;;;;;;5052676;28;20229;-64
2022/10/16 12:07:17;;;;;;;4.28;1.85;;;19.10;66.60;;;;;;5050756;28;20183;-64
2022/10/16 12:09:42;;;;;;;3.58;1.67;;;19.10;66.60;;;;;;5060370;28;20183;-65
2022/10/16 12:12:36;;;;;;;2.90;1.40;;;19.10;66.60;;;;;;5067985;28;20230;-65
2022/10/16 12:15:22;;;;;;;3.58;1.40;;;19.00;66.60;;;;;;5072715;28;20261;-66
2022/10/16 12:17:48;;;;;;;6.43;1.20;;;19.00;66.70;;;;;;5073545;28;20158;-65
2022/10/16 12:20:16;;;;;;;3.13;1.23;;;19.00;66.60;;;;;;5073282;28;20663;-64
2022/10/16 12:22:48;;;;;;;4.38;1.33;;;19.00;66.70;;;;;;5072385;28;20643;-65
2022/10/16 12:25:31;;;;;;;3.38;1.50;;;19.00;66.70;;;;;;5071741;28;20660;-64
2022/10/16 12:28:15;;;;;;;3.63;1.52;;;19.00;66.70;;;;;;5071297;28;20261;-64
2022/10/16 12:30:41;;;;;;;4.05;1.45;;;19.00;66.60;;;;;;5073076;28;20707;-64
2022/10/16 12:33:25;;;;;;;5.35;1.85;;;19.10;66.70;;;;;;5065206;28;20677;-64
2022/10/16 12:35:50;;;;;;;2.50;1.25;;;19.00;66.60;;;;;;5051358;28;20250;-64
2022/10/16 12:38:18;;;;;;;3.42;1.10;;;19.00;66.60;;;;;;5052826;28;20338;-65
2022/10/16 12:40:44;;;;;;;5.35;1.60;;;18.90;66.80;;;;;;5052045;28;20183;-64
2022/10/16 12:43:25;;;;;;;4.05;1.63;;;18.90;66.90;;;;;;5050855;28;20236;-65
2022/10/16 12:46:24;;;;;;;5.70;1.48;;;19.00;66.70;;;;;;5051611;28;20237;-66
2022/10/16 12:48:50;;;;;;;6.00;1.70;;;19.00;66.60;;;;;;5049310;28;20187;-63
2022/10/16 12:51:33;;;;;;;4.07;1.50;;;19.00;66.60;;;;;;5052010;28;20178;-64
2022/10/16 12:54:00;;;;;;;2.88;1.60;;;19.00;66.50;;;;;;5052672;28;20264;-70
2022/10/16 12:56:58;;;;;;;4.93;1.38;;;19.00;66.40;;;;;;5052386;28;20274;-71
2022/10/16 12:59:45;;;;;;;2.97;1.33;;;19.00;66.60;;;;;;5044132;28;20233;-64
2022/10/16 13:02:33;;;;;;;4.57;1.40;;;18.90;66.60;;;;;;5051381;28;20193;-69
2022/10/16 13:05:03;;;;;;;4.05;1.48;;;19.00;66.70;;;;;;5051738;28;20510;-67